Time;durP1;ratioP1;P1;durP2;ratioP2;P2;SDS_P1;SDS_P2;PMS_P1;PMS_P2;Temp;Humidity;BMP_temperature;BMP_pressure;BME280_temperature;BME280_humidity;BME280_pressure;Samples;Min_cycle;Max_cycle;Signal;HPM_P1;HPM_P2
2023/12/27 00:00:11;;;;;;;5.65;1.60;;;8.20;99.70;;;;;;6179715;23;20036;-71
2023/12/27 00:02:58;;;;;;;6.63;2.03;;;8.10;99.90;;;;;;6180979;23;20067;-71
2023/12/27 00:05:46;;;;;;;4.78;2.35;;;8.20;99.80;;;;;;6181346;23;20025;-70
2023/12/27 00:08:32;;;;;;;4.90;1.52;;;8.20;99.80;;;;;;6179534;23;20063;-70
2023/12/27 00:11:18;;;;;;;6.35;2.03;;;8.20;99.70;;;;;;6179950;23;20403;-70
2023/12/27 00:14:04;;;;;;;3.90;1.50;;;8.10;99.70;;;;;;6177429;23;20016;-70
2023/12/27 00:16:50;;;;;;;5.05;1.60;;;8.10;99.70;;;;;;6180286;23;20572;-70
2023/12/27 00:19:36;;;;;;;7.68;2.38;;;8.10;99.70;;;;;;6180016;23;20434;-70
2023/12/27 00:22:23;;;;;;;5.20;1.58;;;8.00;99.70;;;;;;6180292;23;20096;-68
2023/12/27 00:25:09;;;;;;;6.32;2.38;;;8.00;99.60;;;;;;6179489;23;20349;-68
2023/12/27 00:27:54;;;;;;;5.95;1.90;;;7.90;99.60;;;;;;6179409;23;20019;-68
2023/12/27 00:30:40;;;;;;;9.23;2.35;;;7.90;99.70;;;;;;6181065;23;20016;-69
2023/12/27 00:33:26;;;;;;;6.55;2.50;;;7.90;99.70;;;;;;6181714;23;20051;-68
2023/12/27 00:36:13;;;;;;;4.50;1.65;;;7.90;99.70;;;;;;6181704;23;20005;-69
2023/12/27 00:38:59;;;;;;;4.18;1.70;;;7.90;99.70;;;;;;6181971;23;20016;-68
2023/12/27 00:41:45;;;;;;;4.32;1.65;;;7.90;99.60;;;;;;6181951;23;20401;-69
2023/12/27 00:44:31;;;;;;;5.78;2.33;;;7.80;99.70;;;;;;6181837;23;20165;-69
2023/12/27 00:47:17;;;;;;;9.52;2.58;;;7.80;99.70;;;;;;6180910;23;20044;-69
2023/12/27 00:50:03;;;;;;;5.78;2.10;;;7.80;99.60;;;;;;6181593;23;20016;-69
2023/12/27 00:52:49;;;;;;;6.28;1.83;;;7.70;99.60;;;;;;6184079;23;20043;-69
2023/12/27 00:55:36;;;;;;;10.60;2.05;;;7.70;99.60;;;;;;6180417;23;20001;-68
2023/12/27 00:58:21;;;;;;;5.57;2.10;;;7.60;99.70;;;;;;6182638;23;20083;-68
2023/12/27 01:01:07;;;;;;;6.25;2.42;;;7.60;99.80;;;;;;6182484;23;20013;-68
2023/12/27 01:03:54;;;;;;;5.53;1.60;;;7.50;99.80;;;;;;6182595;23;20017;-68
2023/12/27 01:06:39;;;;;;;5.65;2.10;;;7.50;99.80;;;;;;6182213;23;20059;-68
2023/12/27 01:09:26;;;;;;;4.60;2.05;;;7.50;99.80;;;;;;6183161;23;20009;-68
2023/12/27 01:12:12;;;;;;;6.45;2.25;;;7.40;99.90;;;;;;6182559;23;20157;-68
2023/12/27 01:14:57;;;;;;;5.68;1.67;;;7.40;99.90;;;;;;6160880;23;20044;-68
2023/12/27 01:17:43;;;;;;;12.02;2.22;;;7.40;99.90;;;;;;6181695;23;20016;-68
2023/12/27 01:20:29;;;;;;;6.15;2.92;;;7.40;99.90;;;;;;6183477;23;20016;-68
2023/12/27 01:23:15;;;;;;;8.35;2.25;;;7.30;99.90;;;;;;6182397;23;20099;-68
2023/12/27 01:26:01;;;;;;;7.90;2.65;;;7.40;99.90;;;;;;6182488;23;20005;-68
2023/12/27 01:28:47;;;;;;;7.68;1.85;;;7.40;99.90;;;;;;6179873;23;20019;-69
2023/12/27 01:31:33;;;;;;;5.88;2.47;;;7.40;99.90;;;;;;6179729;23;20037;-69
2023/12/27 01:34:19;;;;;;;5.20;2.03;;;7.30;99.90;;;;;;6181299;23;20013;-69
2023/12/27 01:37:05;;;;;;;7.00;2.42;;;7.40;99.90;;;;;;6181322;23;20020;-68
2023/12/27 01:39:51;;;;;;;5.88;2.50;;;7.40;99.90;;;;;;6182444;23;20016;-68
2023/12/27 01:42:38;;;;;;;10.45;2.20;;;7.40;99.90;;;;;;6181333;23;20021;-69
2023/12/27 01:45:24;;;;;;;8.85;3.20;;;7.40;99.90;;;;;;6181692;23;20346;-68
2023/12/27 01:48:11;;;;;;;6.32;1.98;;;7.40;99.90;;;;;;6180280;23;20067;-68
2023/12/27 01:50:58;;;;;;;9.30;2.45;;;7.40;99.90;;;;;;6182076;23;20085;-69
2023/12/27 01:53:44;;;;;;;5.80;2.35;;;7.40;99.90;;;;;;6180944;23;20399;-69
2023/12/27 01:56:30;;;;;;;5.47;1.65;;;7.40;99.90;;;;;;6181342;23;20216;-68
2023/12/27 01:59:16;;;;;;;5.60;2.10;;;7.30;99.90;;;;;;6180939;23;20091;-67
2023/12/27 02:02:02;;;;;;;7.15;1.90;;;7.30;99.90;;;;;;6181287;23;20016;-67
2023/12/27 02:04:48;;;;;;;5.78;2.03;;;7.30;99.90;;;;;;6181414;23;20017;-67
2023/12/27 02:07:35;;;;;;;6.60;2.25;;;7.30;99.90;;;;;;6179428;23;20473;-67
2023/12/27 02:10:21;;;;;;;5.28;2.00;;;7.30;99.90;;;;;;6180475;23;20089;-67
2023/12/27 02:13:07;;;;;;;10.70;2.35;;;7.30;99.90;;;;;;6181854;23;20013;-68
2023/12/27 02:15:53;;;;;;;7.50;2.05;;;7.30;99.90;;;;;;6181020;23;20319;-68
2023/12/27 02:18:40;;;;;;;6.75;2.45;;;7.20;99.90;;;;;;6181953;23;20048;-69
2023/12/27 02:21:28;;;;;;;5.75;1.90;;;7.20;99.90;;;;;;6181350;23;20125;-69
2023/12/27 02:24:17;;;;;;;5.72;2.63;;;7.20;99.90;;;;;;6179742;23;20045;-68
2023/12/27 02:27:04;;;;;;;4.60;2.50;;;7.20;99.90;;;;;;6182684;23;20016;-68
2023/12/27 02:29:50;;;;;;;5.63;2.55;;;7.10;99.90;;;;;;6179924;23;20013;-68
2023/12/27 02:32:36;;;;;;;5.68;1.80;;;7.00;99.90;;;;;;6181517;23;20009;-68
2023/12/27 02:35:22;;;;;;;6.63;1.80;;;7.00;99.90;;;;;;6180863;23;20012;-68
2023/12/27 02:38:08;;;;;;;7.25;2.17;;;7.00;99.90;;;;;;6182113;23;20017;-68
2023/12/27 02:40:55;;;;;;;13.57;2.67;;;7.00;99.90;;;;;;6158823;23;20012;-68
2023/12/27 02:43:41;;;;;;;7.57;1.80;;;7.00;99.90;;;;;;6181299;23;20021;-68
2023/12/27 02:46:37;;;;;;;10.32;2.00;;;7.00;99.90;;;;;;6180589;23;20015;-68
2023/12/27 02:49:23;;;;;;;;;;;6.90;99.90;;;;;;6182565;23;20457;-67
2023/12/27 02:52:09;;;;;;;7.10;2.08;;;7.00;99.90;;;;;;6180525;23;19900;-67
2023/12/27 02:54:55;;;;;;;5.38;1.70;;;6.90;99.90;;;;;;6182272;23;20067;-68
2023/12/27 02:57:41;;;;;;;7.20;2.03;;;6.90;99.90;;;;;;6180850;23;20021;-68
2023/12/27 03:00:27;;;;;;;5.25;2.25;;;6.90;99.90;;;;;;6182173;23;20092;-73
2023/12/27 03:03:13;;;;;;;8.73;2.30;;;6.80;99.90;;;;;;6180731;23;20458;-72
2023/12/27 03:05:59;;;;;;;9.10;2.10;;;6.90;99.90;;;;;;6158434;23;20331;-73
2023/12/27 03:08:45;;;;;;;7.38;1.70;;;6.90;99.90;;;;;;6179848;23;20016;-73
2023/12/27 03:11:31;;;;;;;6.97;2.20;;;6.90;99.90;;;;;;6181670;23;20315;-72
2023/12/27 03:14:17;;;;;;;10.32;2.55;;;6.90;99.90;;;;;;6181339;23;20009;-71
2023/12/27 03:17:03;;;;;;;10.30;2.17;;;6.90;99.90;;;;;;6183090;23;20473;-73
2023/12/27 03:19:49;;;;;;;4.78;1.95;;;6.90;99.90;;;;;;6181136;23;20040;-72
2023/12/27 03:22:35;;;;;;;4.65;2.10;;;6.90;99.90;;;;;;6181799;23;20472;-72
2023/12/27 03:25:21;;;;;;;8.50;2.00;;;6.90;99.90;;;;;;6179804;23;20108;-74
2023/12/27 03:28:07;;;;;;;7.93;2.85;;;6.90;99.90;;;;;;6181825;23;20017;-73
2023/12/27 03:30:53;;;;;;;7.20;1.85;;;6.90;99.90;;;;;;6180220;23;20136;-73
2023/12/27 03:33:39;;;;;;;4.95;1.60;;;6.90;99.90;;;;;;6179370;23;20017;-73
2023/12/27 03:36:25;;;;;;;6.13;2.17;;;6.90;99.90;;;;;;6179719;23;20020;-73
2023/12/27 03:39:11;;;;;;;8.43;2.13;;;6.80;99.90;;;;;;6180088;23;20474;-71
2023/12/27 03:41:56;;;;;;;5.53;2.30;;;6.90;99.90;;;;;;6179891;23;20121;-72
2023/12/27 03:44:42;;;;;;;7.68;2.08;;;6.80;99.90;;;;;;6180735;23;20017;-72
2023/12/27 03:47:28;;;;;;;3.80;2.20;;;6.80;99.90;;;;;;6179918;23;20040;-72
2023/12/27 03:50:14;;;;;;;6.45;2.00;;;6.80;99.90;;;;;;6158325;23;20009;-76
2023/12/27 03:53:00;;;;;;;6.70;2.53;;;6.80;99.90;;;;;;6179992;23;20005;-73
2023/12/27 03:55:46;;;;;;;11.93;2.47;;;6.80;99.90;;;;;;6180648;23;20096;-73
2023/12/27 03:58:33;;;;;;;4.32;1.48;;;6.80;99.90;;;;;;6179950;23;20100;-73
2023/12/27 04:01:23;;;;;;;4.75;2.15;;;6.80;99.90;;;;;;6179581;23;20299;-73
2023/12/27 04:04:10;;;;;;;7.65;2.00;;;6.80;99.90;;;;;;6182302;23;20185;-72
2023/12/27 04:06:56;;;;;;;8.80;2.00;;;6.70;99.90;;;;;;6178930;23;20020;-73
2023/12/27 04:09:42;;;;;;;5.50;2.40;;;6.80;99.90;;;;;;6158976;23;20005;-73
2023/12/27 04:12:28;;;;;;;10.65;2.90;;;6.70;99.90;;;;;;6180840;23;20084;-73
2023/12/27 04:15:14;;;;;;;11.63;2.47;;;6.80;99.90;;;;;;6179039;23;20009;-73
2023/12/27 04:18:00;;;;;;;5.75;1.98;;;6.80;99.90;;;;;;6159230;23;20013;-74
2023/12/27 04:20:46;;;;;;;6.60;1.88;;;6.70;99.90;;;;;;6180528;23;20017;-74
2023/12/27 04:23:31;;;;;;;6.63;1.83;;;6.80;99.90;;;;;;6178597;23;20027;-74
2023/12/27 04:26:18;;;;;;;10.35;2.60;;;6.70;99.90;;;;;;6179976;23;20028;-72
2023/12/27 04:29:08;;;;;;;6.50;2.15;;;6.70;99.90;;;;;;6180120;23;20092;-70
2023/12/27 04:31:54;;;;;;;8.02;2.53;;;6.70;99.90;;;;;;6180169;23;20021;-74
2023/12/27 04:34:40;;;;;;;4.30;2.08;;;6.70;99.90;;;;;;6178061;23;20113;-73
2023/12/27 04:37:26;;;;;;;6.53;1.73;;;6.70;99.90;;;;;;6179310;23;20009;-73
2023/12/27 04:40:12;;;;;;;6.57;2.50;;;6.70;99.90;;;;;;6180211;23;20013;-73
2023/12/27 04:42:59;;;;;;;5.45;2.30;;;6.70;99.90;;;;;;6183254;23;20106;-74
2023/12/27 04:45:45;;;;;;;4.18;1.63;;;6.70;99.90;;;;;;6179621;23;20041;-74
2023/12/27 04:48:31;;;;;;;7.28;1.90;;;6.70;99.90;;;;;;6180602;23;20009;-73
2023/12/27 04:51:17;;;;;;;5.93;1.80;;;6.60;99.90;;;;;;6180022;23;20044;-74
2023/12/27 04:54:03;;;;;;;8.57;2.67;;;6.60;99.90;;;;;;6180076;23;20013;-75
2023/12/27 04:56:54;;;;;;;5.07;2.22;;;6.60;99.90;;;;;;6180821;23;20021;-72
2023/12/27 04:59:40;;;;;;;6.63;2.95;;;6.60;99.90;;;;;;6181180;23;20016;-74
2023/12/27 05:02:26;;;;;;;7.53;2.35;;;6.60;99.90;;;;;;6178738;23;20028;-74
2023/12/27 05:05:12;;;;;;;7.40;2.75;;;6.60;99.90;;;;;;6158274;23;20005;-74
2023/12/27 05:07:58;;;;;;;6.82;1.95;;;6.60;99.90;;;;;;6179296;23;20092;-72
2023/12/27 05:10:44;;;;;;;6.38;1.98;;;6.60;99.90;;;;;;6180118;23;20070;-72
2023/12/27 05:13:30;;;;;;;7.30;2.10;;;6.50;99.90;;;;;;6179605;23;20092;-72
2023/12/27 05:16:17;;;;;;;7.30;1.58;;;6.50;99.90;;;;;;6178856;23;20088;-73
2023/12/27 05:19:03;;;;;;;6.82;2.92;;;6.60;99.90;;;;;;6181794;23;20087;-73
2023/12/27 05:21:49;;;;;;;7.50;2.35;;;6.50;99.90;;;;;;6181547;23;20008;-71
2023/12/27 05:24:35;;;;;;;6.78;1.92;;;6.50;99.90;;;;;;6183568;23;20044;-73
2023/12/27 05:27:21;;;;;;;7.93;2.33;;;6.50;99.90;;;;;;6181928;23;20071;-73
2023/12/27 05:30:09;;;;;;;10.65;3.10;;;6.50;99.90;;;;;;6180425;23;20434;-72
2023/12/27 05:32:55;;;;;;;9.52;3.15;;;6.50;99.90;;;;;;6181466;23;20474;-73
2023/12/27 05:35:41;;;;;;;7.60;2.78;;;6.50;99.90;;;;;;6181493;23;20034;-74
2023/12/27 05:38:27;;;;;;;6.38;2.38;;;6.50;99.90;;;;;;6179606;23;20005;-73
2023/12/27 05:41:13;;;;;;;3.78;2.15;;;6.50;99.90;;;;;;6180696;23;20016;-72
2023/12/27 05:43:59;;;;;;;4.65;2.55;;;6.50;99.90;;;;;;6181738;23;20023;-73
2023/12/27 05:46:45;;;;;;;5.00;1.83;;;6.50;99.90;;;;;;6180971;23;20005;-73
2023/12/27 05:49:31;;;;;;;8.35;2.30;;;6.50;99.90;;;;;;6181241;23;20016;-73
2023/12/27 05:52:17;;;;;;;8.68;2.63;;;6.50;99.90;;;;;;6181727;23;20028;-73
2023/12/27 05:55:05;;;;;;;6.85;2.30;;;6.50;99.90;;;;;;6181512;23;20088;-73
2023/12/27 05:57:51;;;;;;;10.98;3.15;;;6.50;99.90;;;;;;6181761;23;20044;-73
2023/12/27 06:00:37;;;;;;;6.15;2.22;;;6.50;99.90;;;;;;6180578;23;20521;-73
2023/12/27 06:03:23;;;;;;;6.35;2.03;;;6.50;99.90;;;;;;6181541;23;20025;-73
2023/12/27 06:06:09;;;;;;;8.55;2.45;;;6.40;99.90;;;;;;6181938;23;20010;-74
2023/12/27 06:08:55;;;;;;;5.85;2.28;;;6.40;99.90;;;;;;6159754;23;20072;-74
2023/12/27 06:11:41;;;;;;;14.55;3.83;;;6.40;99.90;;;;;;6180307;23;20441;-74
2023/12/27 06:14:27;;;;;;;8.10;2.05;;;6.40;99.90;;;;;;6179799;23;20084;-73
2023/12/27 06:17:14;;;;;;;7.78;2.70;;;6.40;99.90;;;;;;6181644;23;20013;-75
2023/12/27 06:20:00;;;;;;;8.85;2.55;;;6.40;99.90;;;;;;6181157;23;20036;-74
2023/12/27 06:22:46;;;;;;;7.30;2.25;;;6.40;99.90;;;;;;6181256;23;20516;-75
2023/12/27 06:25:32;;;;;;;9.40;2.53;;;6.40;99.90;;;;;;6181309;23;20390;-75
2023/12/27 06:28:18;;;;;;;5.57;2.13;;;6.40;99.90;;;;;;6178946;23;20144;-74
2023/12/27 06:31:04;;;;;;;6.68;1.95;;;6.40;99.90;;;;;;6182412;23;20005;-75
2023/12/27 06:33:50;;;;;;;10.68;3.75;;;6.40;99.90;;;;;;6182160;23;20017;-71
2023/12/27 06:36:36;;;;;;;9.73;2.28;;;6.40;99.90;;;;;;6182241;23;20205;-73
2023/12/27 06:39:22;;;;;;;13.23;2.10;;;6.40;99.90;;;;;;6182687;23;20016;-73
2023/12/27 06:42:08;;;;;;;6.93;2.38;;;6.40;99.90;;;;;;6180735;23;20472;-72
2023/12/27 06:44:54;;;;;;;6.22;2.25;;;6.40;99.90;;;;;;6181639;23;20016;-72
2023/12/27 06:47:40;;;;;;;11.35;2.42;;;6.40;99.90;;;;;;6181287;23;20005;-72
2023/12/27 06:50:26;;;;;;;7.15;2.03;;;6.40;99.90;;;;;;6180960;23;20031;-72
2023/12/27 06:53:12;;;;;;;8.18;2.13;;;6.50;99.90;;;;;;6181028;23;20531;-72
2023/12/27 06:56:00;;;;;;;6.85;2.03;;;6.50;99.90;;;;;;6179179;23;20068;-74
2023/12/27 06:58:46;;;;;;;5.10;2.08;;;6.50;99.90;;;;;;6180603;23;20096;-70
2023/12/27 07:01:32;;;;;;;6.75;1.98;;;6.50;99.90;;;;;;6155080;23;20009;-69
2023/12/27 07:04:19;;;;;;;7.90;2.80;;;6.50;99.90;;;;;;6180169;23;20017;-67
2023/12/27 07:07:05;;;;;;;7.07;2.28;;;6.50;99.90;;;;;;6181278;23;20409;-67
2023/12/27 07:09:51;;;;;;;4.05;1.90;;;6.50;99.90;;;;;;6180160;23;20096;-68
2023/12/27 07:12:37;;;;;;;9.88;2.75;;;6.50;99.90;;;;;;6180509;23;20354;-68
2023/12/27 07:15:22;;;;;;;8.10;1.88;;;6.50;99.90;;;;;;6181660;23;20005;-69
2023/12/27 07:18:08;;;;;;;11.68;2.90;;;6.40;99.90;;;;;;6180857;23;20013;-69
2023/12/27 07:20:54;;;;;;;7.97;2.85;;;6.40;99.90;;;;;;6178327;23;20064;-69
2023/12/27 07:23:40;;;;;;;7.07;2.47;;;6.40;99.90;;;;;;6182187;23;20566;-69
2023/12/27 07:26:26;;;;;;;7.68;1.70;;;6.40;99.90;;;;;;6179482;23;20013;-68
2023/12/27 07:29:12;;;;;;;8.43;2.88;;;6.40;99.90;;;;;;6180789;23;20088;-68
2023/12/27 07:31:58;;;;;;;6.30;2.53;;;6.40;99.90;;;;;;6181592;23;20202;-68
2023/12/27 07:34:44;;;;;;;5.47;2.20;;;6.30;99.90;;;;;;6179756;23;20013;-68
2023/12/27 07:37:31;;;;;;;5.30;1.98;;;6.40;99.90;;;;;;6179807;23;20044;-68
2023/12/27 07:40:17;;;;;;;8.82;2.53;;;6.40;99.90;;;;;;6182171;23;20051;-68
2023/12/27 07:43:05;;;;;;;8.43;2.35;;;6.40;99.90;;;;;;6179662;23;20017;-68
2023/12/27 07:45:51;;;;;;;7.38;2.78;;;6.40;99.90;;;;;;6179855;23;20013;-68
2023/12/27 07:48:37;;;;;;;8.35;2.85;;;6.40;99.90;;;;;;6180106;23;20044;-68
2023/12/27 07:51:23;;;;;;;10.25;2.50;;;6.40;99.90;;;;;;6180764;23;20037;-69
2023/12/27 07:54:09;;;;;;;6.35;2.88;;;6.40;99.90;;;;;;6179451;23;20009;-68
2023/12/27 07:56:55;;;;;;;4.65;2.10;;;6.40;99.90;;;;;;6180900;23;20416;-69
2023/12/27 07:59:41;;;;;;;6.22;2.38;;;6.30;99.90;;;;;;6179640;23;20013;-69
2023/12/27 08:02:27;;;;;;;7.90;2.50;;;6.40;99.90;;;;;;6180749;23;20032;-69
2023/12/27 08:05:13;;;;;;;7.57;2.63;;;6.40;99.90;;;;;;6179731;23;20032;-69
2023/12/27 08:07:59;;;;;;;7.72;1.80;;;6.40;99.90;;;;;;6180863;23;20163;-68
2023/12/27 08:10:44;;;;;;;9.35;2.83;;;6.40;99.90;;;;;;6177463;23;20005;-68
2023/12/27 08:13:36;;;;;;;8.73;2.92;;;6.40;99.90;;;;;;6180859;23;20096;-69
2023/12/27 08:16:22;;;;;;;6.45;2.25;;;6.40;99.90;;;;;;6180499;23;20020;-69
2023/12/27 08:19:08;;;;;;;11.98;2.53;;;6.40;99.90;;;;;;6179369;23;20013;-68
2023/12/27 08:21:55;;;;;;;8.55;2.45;;;6.40;99.90;;;;;;6180843;23;20005;-69
2023/12/27 08:24:40;;;;;;;7.30;2.35;;;6.40;99.90;;;;;;6179807;23;20009;-69
2023/12/27 08:27:26;;;;;;;5.70;2.90;;;6.50;99.90;;;;;;6180628;23;20389;-68
2023/12/27 08:30:13;;;;;;;8.00;2.35;;;6.50;99.90;;;;;;6182061;23;20024;-63
2023/12/27 08:32:59;;;;;;;10.98;3.25;;;6.50;99.90;;;;;;6179811;23;20212;-64
2023/12/27 08:35:45;;;;;;;6.22;2.50;;;6.50;99.90;;;;;;6157985;23;20016;-63
2023/12/27 08:38:32;;;;;;;11.93;2.30;;;6.50;99.90;;;;;;6181559;23;20541;-64
2023/12/27 08:41:20;;;;;;;8.57;3.05;;;6.50;99.90;;;;;;6181315;23;20013;-63
2023/12/27 08:44:06;;;;;;;6.43;2.45;;;6.60;99.90;;;;;;6180119;23;20028;-64
2023/12/27 08:46:52;;;;;;;6.72;2.20;;;6.60;99.90;;;;;;6180107;23;20012;-63
2023/12/27 08:49:38;;;;;;;6.38;2.10;;;6.60;99.90;;;;;;6179977;23;20020;-63
2023/12/27 08:52:24;;;;;;;5.22;2.10;;;6.60;99.90;;;;;;6183316;23;20501;-63
2023/12/27 08:55:10;;;;;;;6.53;2.38;;;6.60;99.90;;;;;;6182174;23;20009;-63
2023/12/27 08:57:56;;;;;;;9.85;2.88;;;6.70;99.90;;;;;;6182320;23;20025;-64
2023/12/27 09:00:42;;;;;;;9.63;2.00;;;6.70;99.90;;;;;;6181155;23;20016;-63
2023/12/27 09:03:28;;;;;;;12.13;3.10;;;6.70;99.90;;;;;;6180251;23;20401;-63
2023/12/27 09:06:14;;;;;;;6.03;2.65;;;6.70;99.90;;;;;;6180210;23;20009;-63
2023/12/27 09:09:00;;;;;;;6.72;2.75;;;6.70;99.90;;;;;;6181151;23;20104;-64
2023/12/27 09:11:46;;;;;;;10.50;3.10;;;6.80;99.90;;;;;;6182229;23;20079;-63
2023/12/27 09:14:32;;;;;;;7.88;3.25;;;6.80;99.90;;;;;;6180025;23;20434;-64
2023/12/27 09:17:18;;;;;;;6.03;2.53;;;6.90;99.90;;;;;;6182147;23;20016;-63
2023/12/27 09:20:07;;;;;;;8.23;3.20;;;6.90;99.90;;;;;;6179900;23;20349;-62
2023/12/27 09:22:53;;;;;;;4.97;2.78;;;6.90;99.90;;;;;;6179795;23;20446;-63
2023/12/27 09:25:39;;;;;;;9.30;3.33;;;6.90;99.90;;;;;;6179273;23;20092;-64
2023/12/27 09:28:27;;;;;;;7.22;3.22;;;7.00;99.90;;;;;;6181830;23;20013;-63
2023/12/27 09:31:13;;;;;;;7.70;3.67;;;7.00;99.90;;;;;;6180895;23;20091;-63
2023/12/27 09:34:02;;;;;;;9.48;3.33;;;7.00;99.90;;;;;;6181534;23;20505;-65
2023/12/27 09:36:48;;;;;;;7.45;2.55;;;7.10;99.90;;;;;;6182730;23;20012;-64
2023/12/27 09:39:34;;;;;;;7.50;3.10;;;7.10;99.90;;;;;;6182091;23;20027;-65
2023/12/27 09:42:20;;;;;;;7.55;3.50;;;7.10;99.90;;;;;;6181517;23;20112;-65
2023/12/27 09:45:08;;;;;;;7.03;2.35;;;7.10;99.90;;;;;;6182062;23;20005;-64
2023/12/27 09:47:56;;;;;;;7.28;2.85;;;7.20;99.90;;;;;;6180904;23;20040;-65
2023/12/27 09:50:42;;;;;;;9.38;2.58;;;7.20;99.90;;;;;;6182864;23;20063;-65
2023/12/27 09:53:28;;;;;;;10.02;3.28;;;7.20;99.90;;;;;;6181481;23;20068;-65
2023/12/27 09:56:15;;;;;;;9.75;2.75;;;7.20;99.90;;;;;;6181323;23;20025;-65
2023/12/27 09:59:05;;;;;;;6.00;2.45;;;7.30;99.90;;;;;;6182272;23;20334;-65
2023/12/27 10:01:56;;;;;;;7.95;2.97;;;7.30;99.90;;;;;;6182955;23;20103;-65
2023/12/27 10:04:59;;;;;;;9.23;2.83;;;7.30;99.90;;;;;;6179520;23;20013;-65
2023/12/27 10:07:45;;;;;;;11.13;4.00;;;7.40;99.90;;;;;;6181445;23;20013;-65
2023/12/27 10:10:33;;;;;;;8.52;2.88;;;7.40;99.90;;;;;;6175468;23;20012;-64
2023/12/27 10:13:20;;;;;;;8.65;3.22;;;7.40;99.90;;;;;;6181841;23;20009;-65
2023/12/27 10:16:06;;;;;;;10.48;3.38;;;7.40;99.90;;;;;;6182190;23;20080;-64
2023/12/27 10:18:52;;;;;;;7.07;2.80;;;7.50;99.90;;;;;;6181816;23;20028;-65
2023/12/27 10:21:43;;;;;;;17.92;3.00;;;7.50;99.90;;;;;;6180173;23;20016;-65
2023/12/27 10:24:29;;;;;;;8.68;2.72;;;7.50;99.90;;;;;;6182627;23;20021;-65
2023/12/27 10:27:15;;;;;;;7.97;3.15;;;7.50;99.90;;;;;;6181336;23;20017;-65
2023/12/27 10:30:03;;;;;;;6.88;2.35;;;7.50;99.90;;;;;;6179321;23;20023;-66
2023/12/27 10:33:00;;;;;;;9.45;2.72;;;7.60;99.90;;;;;;6159011;23;20024;-66
2023/12/27 10:35:46;;;;;;;6.07;2.45;;;7.60;99.90;;;;;;6178151;23;20024;-66
2023/12/27 10:38:32;;;;;;;9.13;2.80;;;7.60;99.90;;;;;;6180450;23;20402;-67
2023/12/27 10:41:21;;;;;;;10.73;3.50;;;7.60;99.90;;;;;;6180742;23;20092;-67
2023/12/27 10:44:07;;;;;;;14.77;4.45;;;7.60;99.90;;;;;;6179896;23;20025;-67
2023/12/27 10:46:54;;;;;;;9.02;3.42;;;7.60;99.90;;;;;;6180510;23;20016;-67
2023/12/27 10:49:42;;;;;;;10.90;4.57;;;7.60;99.90;;;;;;6178294;23;20454;-67
2023/12/27 10:52:28;;;;;;;12.68;4.82;;;7.60;99.90;;;;;;6173908;23;20338;-67
2023/12/27 10:55:19;;;;;;;7.90;3.22;;;7.60;99.90;;;;;;6179128;23;20020;-67
2023/12/27 10:58:11;;;;;;;13.43;3.50;;;7.60;99.90;;;;;;6179150;23;20501;-66
2023/12/27 11:00:59;;;;;;;8.43;3.20;;;7.60;99.90;;;;;;6180836;23;20405;-67
2023/12/27 11:03:50;;;;;;;11.25;3.80;;;7.60;99.90;;;;;;6181399;23;20028;-67
2023/12/27 11:06:40;;;;;;;9.60;2.90;;;7.60;99.90;;;;;;6180831;23;20032;-67
2023/12/27 11:09:28;;;;;;;12.85;3.88;;;7.70;99.90;;;;;;6181087;23;20311;-67
2023/12/27 11:12:17;;;;;;;5.93;3.05;;;7.70;99.90;;;;;;6182896;23;20009;-67
2023/12/27 11:15:05;;;;;;;8.48;3.55;;;7.70;99.90;;;;;;6182582;23;20075;-68
2023/12/27 11:17:52;;;;;;;7.15;3.17;;;7.70;99.90;;;;;;6159207;23;20093;-68
2023/12/27 11:20:40;;;;;;;10.43;4.22;;;7.70;99.90;;;;;;6180014;23;20013;-67
2023/12/27 11:23:27;;;;;;;11.80;3.15;;;7.70;99.90;;;;;;6179906;23;20088;-67
2023/12/27 11:26:14;;;;;;;7.45;2.50;;;7.70;99.90;;;;;;6180600;23;20009;-68
2023/12/27 11:29:01;;;;;;;12.57;3.47;;;7.70;99.90;;;;;;6179264;23;20037;-68
2023/12/27 11:31:47;;;;;;;7.45;3.08;;;7.70;99.90;;;;;;6179490;23;20049;-68
2023/12/27 11:34:34;;;;;;;7.63;2.60;;;7.70;99.90;;;;;;6179748;23;20406;-68
2023/12/27 11:37:25;;;;;;;8.27;3.03;;;7.70;99.90;;;;;;6178962;23;20468;-68
2023/12/27 11:40:11;;;;;;;6.68;2.47;;;7.70;99.90;;;;;;6179408;23;20037;-69
2023/12/27 11:42:57;;;;;;;10.18;4.13;;;7.70;99.90;;;;;;6180689;23;20017;-69
2023/12/27 11:46:01;;;;;;;9.85;3.13;;;7.70;99.90;;;;;;6180120;23;20445;-69
2023/12/27 11:48:47;;;;;;;6.30;2.70;;;7.70;99.90;;;;;;6182827;23;20021;-67
2023/12/27 11:51:35;;;;;;;9.05;2.70;;;7.70;99.90;;;;;;6177187;23;20013;-66
2023/12/27 11:54:23;;;;;;;8.73;2.55;;;7.70;99.90;;;;;;6176311;23;20067;-66
2023/12/27 11:57:10;;;;;;;8.68;2.88;;;7.70;99.90;;;;;;6159142;23;20021;-66
2023/12/27 11:59:56;;;;;;;8.07;2.95;;;7.70;99.90;;;;;;6150008;23;20006;-66
2023/12/27 12:02:49;;;;;;;8.65;4.15;;;7.70;99.90;;;;;;6148771;23;20025;-66
2023/12/27 12:05:53;;;;;;;15.32;3.75;;;7.70;99.90;;;;;;6151781;23;20383;-67
2023/12/27 12:08:44;;;;;;;6.57;2.38;;;7.70;99.90;;;;;;6149034;23;20064;-66
2023/12/27 12:11:33;;;;;;;6.85;2.75;;;7.60;99.90;;;;;;6149971;23;20013;-66
2023/12/27 12:14:21;;;;;;;9.73;3.50;;;7.60;99.90;;;;;;6130227;23;20009;-66
2023/12/27 12:17:08;;;;;;;13.07;4.35;;;7.60;99.90;;;;;;6149378;23;20164;-67
2023/12/27 12:19:55;;;;;;;6.55;2.97;;;7.60;99.90;;;;;;6150891;23;20009;-66
2023/12/27 12:22:43;;;;;;;10.88;4.05;;;7.60;99.90;;;;;;6151177;23;20104;-66
2023/12/27 12:25:29;;;;;;;10.40;5.20;;;7.70;99.90;;;;;;6147025;23;20071;-66
2023/12/27 12:28:15;;;;;;;12.68;4.95;;;7.70;99.90;;;;;;6151375;23;20013;-67
2023/12/27 12:31:01;;;;;;;14.13;4.82;;;7.70;99.90;;;;;;6148208;23;20072;-67
2023/12/27 12:33:47;;;;;;;15.43;5.07;;;7.70;99.90;;;;;;6148708;23;20100;-67
2023/12/27 12:36:33;;;;;;;12.75;6.53;;;7.80;99.90;;;;;;6152150;23;20013;-67
2023/12/27 12:39:20;;;;;;;14.93;6.25;;;7.80;99.90;;;;;;6152950;23;20037;-67
2023/12/27 12:42:07;;;;;;;16.13;5.85;;;7.80;99.90;;;;;;6151160;23;20458;-67
2023/12/27 12:44:53;;;;;;;9.40;3.78;;;7.80;99.90;;;;;;6151415;23;20029;-67
2023/12/27 12:47:39;;;;;;;10.45;4.85;;;7.80;99.90;;;;;;6151405;23;20473;-68
2023/12/27 12:50:25;;;;;;;12.27;4.88;;;7.80;99.90;;;;;;6153875;23;20010;-68
2023/12/27 12:53:17;;;;;;;13.43;5.07;;;7.80;99.90;;;;;;6151984;23;20010;-67
2023/12/27 12:56:06;;;;;;;11.65;4.63;;;7.80;99.90;;;;;;6151427;23;20445;-67
2023/12/27 12:58:52;;;;;;;7.65;3.85;;;7.80;99.90;;;;;;6154982;23;20084;-67
2023/12/27 13:01:38;;;;;;;8.85;3.85;;;7.80;99.90;;;;;;6152879;23;20053;-67
2023/12/27 13:04:25;;;;;;;7.97;3.90;;;7.80;99.90;;;;;;6151488;23;20013;-67
2023/12/27 13:07:11;;;;;;;9.15;3.08;;;7.80;99.90;;;;;;6152052;23;20005;-67
2023/12/27 13:09:58;;;;;;;8.23;2.85;;;7.80;99.90;;;;;;6152590;23;20391;-67
2023/12/27 13:12:45;;;;;;;6.70;3.05;;;7.80;99.90;;;;;;6152383;23;20009;-67
2023/12/27 13:15:31;;;;;;;6.43;2.45;;;7.80;99.90;;;;;;6149285;23;20142;-67
2023/12/27 13:18:17;;;;;;;12.23;3.22;;;7.80;99.90;;;;;;6151746;23;20014;-67
2023/12/27 13:21:03;;;;;;;8.60;3.25;;;7.80;99.90;;;;;;6152657;23;20017;-67
2023/12/27 13:23:49;;;;;;;7.05;2.58;;;7.80;99.90;;;;;;6152081;23;20029;-67
2023/12/27 13:26:35;;;;;;;6.63;2.88;;;7.80;99.90;;;;;;6152042;23;20206;-67
2023/12/27 13:29:21;;;;;;;8.95;3.22;;;7.70;99.90;;;;;;6149910;23;20009;-67
2023/12/27 13:32:08;;;;;;;8.38;3.00;;;7.80;99.90;;;;;;6151611;23;20009;-67
2023/12/27 13:34:54;;;;;;;12.05;3.78;;;7.80;99.90;;;;;;6153086;23;20037;-67
2023/12/27 13:37:40;;;;;;;8.73;3.60;;;7.80;99.90;;;;;;6132320;23;20013;-67
2023/12/27 13:40:26;;;;;;;9.52;3.22;;;7.70;99.90;;;;;;6151886;23;20017;-67
2023/12/27 13:43:12;;;;;;;8.25;2.67;;;7.70;99.90;;;;;;6154854;23;20103;-67
2023/12/27 13:45:57;;;;;;;7.85;3.08;;;7.70;99.90;;;;;;6152796;23;20465;-67
2023/12/27 13:48:43;;;;;;;8.52;3.05;;;7.70;99.90;;;;;;6132280;23;20009;-68
2023/12/27 13:51:29;;;;;;;7.40;2.85;;;7.70;99.90;;;;;;6150441;23;20009;-68
2023/12/27 13:54:15;;;;;;;9.25;2.65;;;7.70;99.90;;;;;;6152235;23;20085;-68
2023/12/27 13:57:01;;;;;;;7.78;3.22;;;7.70;99.90;;;;;;6169643;23;20445;-68
2023/12/27 13:59:48;;;;;;;9.77;2.70;;;7.60;99.90;;;;;;6180493;23;20076;-68
2023/12/27 14:02:34;;;;;;;12.15;2.90;;;7.60;99.90;;;;;;6179506;23;20021;-68
2023/12/27 14:05:20;;;;;;;5.80;2.53;;;7.60;99.90;;;;;;6179963;23;20008;-68
2023/12/27 14:08:06;;;;;;;8.93;3.53;;;7.60;99.90;;;;;;6179766;23;20369;-68
2023/12/27 14:10:53;;;;;;;8.98;2.83;;;7.60;99.90;;;;;;6179851;23;20016;-68
2023/12/27 14:13:39;;;;;;;8.95;2.90;;;7.50;99.90;;;;;;6176844;23;20095;-68
2023/12/27 14:16:25;;;;;;;11.18;3.05;;;7.50;99.90;;;;;;6179432;23;20040;-67
2023/12/27 14:19:13;;;;;;;9.02;3.83;;;7.60;99.90;;;;;;6182391;23;20013;-67
2023/12/27 14:21:59;;;;;;;8.80;3.92;;;7.50;99.90;;;;;;6180681;23;20342;-66
2023/12/27 14:24:45;;;;;;;8.68;3.10;;;7.50;99.90;;;;;;6180944;23;20024;-67
2023/12/27 14:27:31;;;;;;;12.93;4.07;;;7.50;99.90;;;;;;6182053;23;20013;-68
2023/12/27 14:30:17;;;;;;;11.75;3.45;;;7.50;99.90;;;;;;6181347;23;20362;-68
2023/12/27 14:33:04;;;;;;;7.88;2.90;;;7.50;99.90;;;;;;6179838;23;20013;-67
2023/12/27 14:35:50;;;;;;;10.75;3.80;;;7.40;99.90;;;;;;6180127;23;20461;-67